createdAt,value
2022-10-02T00:01:20.244Z,97.17
2022-10-02T00:03:49.659Z,97.25
2022-10-02T00:06:23.005Z,96.96
2022-10-02T00:08:55.843Z,96.85
2022-10-02T00:11:29.016Z,97.09
2022-10-02T00:14:01.585Z,96.98
2022-10-02T00:16:37.351Z,97.48
2022-10-02T00:19:05.574Z,97.44
2022-10-02T00:21:42.851Z,97.89
2022-10-02T00:24:18.930Z,98.00
2022-10-02T00:26:53.831Z,97.85
2022-10-02T00:29:33.391Z,98.09
2022-10-02T00:32:16.464Z,97.58
2022-10-02T00:34:57.427Z,98.02
2022-10-02T00:37:36.732Z,97.80
2022-10-02T00:40:23.454Z,97.85
2022-10-02T00:43:04.759Z,97.63
2022-10-02T00:46:00.020Z,97.37
2022-10-02T00:48:48.328Z,97.97
2022-10-02T00:51:33.194Z,97.23
2022-10-02T00:54:15.772Z,97.37
2022-10-02T00:56:51.980Z,97.39
2022-10-02T00:59:38.759Z,97.30
2022-10-02T01:02:13.150Z,97.42
2022-10-02T01:04:42.683Z,97.54
2022-10-02T01:07:14.022Z,97.40
2022-10-02T01:09:42.888Z,97.68
2022-10-02T01:12:11.145Z,97.76
2022-10-02T01:14:40.657Z,97.63
2022-10-02T01:17:23.820Z,97.50
2022-10-02T01:19:53.499Z,98.54
2022-10-02T01:22:29.241Z,98.35
2022-10-02T01:25:00.198Z,99.16
2022-10-02T01:27:28.582Z,99.02
2022-10-02T01:30:01.183Z,98.79
2022-10-02T01:32:29.600Z,99.27
2022-10-02T01:34:58.375Z,98.92
2022-10-02T01:37:29.810Z,98.53
2022-10-02T01:40:01.459Z,98.71
2022-10-02T01:42:30.101Z,98.15
2022-10-02T01:44:58.040Z,97.41
2022-10-02T01:47:35.139Z,97.99
2022-10-02T01:50:13.589Z,97.49
2022-10-02T01:52:50.818Z,97.59
2022-10-02T01:58:33.677Z,96.65
2022-10-02T02:01:10.553Z,96.70
2022-10-02T02:03:46.076Z,97.59
2022-10-02T02:06:22.696Z,96.89
2022-10-02T02:09:02.225Z,96.28
2022-10-02T02:11:31.387Z,96.13
2022-10-02T02:14:04.999Z,96.57
2022-10-02T02:16:39.862Z,96.18
2022-10-02T02:19:14.135Z,96.21
2022-10-02T02:21:46.945Z,96.00
2022-10-02T02:24:19.559Z,97.09
2022-10-02T02:26:48.328Z,97.03
2022-10-02T02:29:20.784Z,96.99
2022-10-02T02:31:52.086Z,97.40
2022-10-02T02:34:24.304Z,97.71
2022-10-02T02:36:57.559Z,97.34
2022-10-02T02:39:32.727Z,97.46
2022-10-02T02:42:04.130Z,97.48
2022-10-02T02:44:39.058Z,97.77
2022-10-02T02:47:12.781Z,98.02
2022-10-02T02:49:52.664Z,97.45
2022-10-02T02:52:23.804Z,97.39
2022-10-02T02:54:56.001Z,97.78
2022-10-02T02:57:29.550Z,98.20
2022-10-02T03:00:03.677Z,97.68
2022-10-02T03:02:31.831Z,97.96
2022-10-02T03:04:59.747Z,97.54
2022-10-02T03:07:27.852Z,97.18
2022-10-02T03:10:06.702Z,97.34
2022-10-02T03:12:46.724Z,97.76
2022-10-02T03:15:28.473Z,97.09
2022-10-02T03:18:10.185Z,97.64
2022-10-02T03:20:43.822Z,98.23
2022-10-02T03:23:22.510Z,98.31
2022-10-02T03:25:55.126Z,97.89
2022-10-02T03:28:53.867Z,98.47
2022-10-02T03:31:21.105Z,98.22
2022-10-02T03:33:52.127Z,98.95
2022-10-02T03:36:20.749Z,98.65
2022-10-02T03:39:06.264Z,98.27
2022-10-02T03:41:38.088Z,98.11
2022-10-02T03:44:05.984Z,98.46
2022-10-02T03:46:35.869Z,98.67
2022-10-02T03:49:04.002Z,98.12
2022-10-02T03:51:31.883Z,98.61
2022-10-02T03:53:59.891Z,98.65
2022-10-02T03:56:38.133Z,98.47
2022-10-02T03:59:14.986Z,98.45
2022-10-02T04:01:50.253Z,97.99
2022-10-02T04:04:23.891Z,97.55
2022-10-02T04:06:56.899Z,98.17
2022-10-02T04:09:31.556Z,98.34
2022-10-02T04:12:04.468Z,98.36
2022-10-02T04:14:39.621Z,98.95
2022-10-02T04:17:14.517Z,98.60
2022-10-02T04:19:47.358Z,98.52
2022-10-02T04:22:32.915Z,97.30
2022-10-02T04:25:06.559Z,97.83
2022-10-02T04:27:39.740Z,97.20
2022-10-02T04:30:11.509Z,97.37
2022-10-02T04:32:40.915Z,97.79
2022-10-02T04:35:15.438Z,98.19
2022-10-02T04:38:12.953Z,97.93
2022-10-02T04:40:56.342Z,97.88
2022-10-02T04:43:38.099Z,98.03
2022-10-02T04:46:17.881Z,98.40
2022-10-02T04:49:17.265Z,97.97
2022-10-02T04:52:24.209Z,97.48
2022-10-02T04:55:18.263Z,97.27
2022-10-02T04:58:00.788Z,97.68
2022-10-02T05:00:36.476Z,98.15
2022-10-02T05:03:21.725Z,98.48
2022-10-02T05:06:16.100Z,98.47
2022-10-02T05:08:58.310Z,98.00
2022-10-02T05:11:44.504Z,98.59
2022-10-02T05:14:40.060Z,98.95
2022-10-02T05:17:26.011Z,98.71
2022-10-02T05:20:06.713Z,98.70
2022-10-02T05:22:52.877Z,98.48
2022-10-02T05:25:48.736Z,98.62
2022-10-02T05:28:43.768Z,98.64
2022-10-02T05:31:22.205Z,98.81
2022-10-02T05:34:02.571Z,98.70
2022-10-02T05:36:55.448Z,98.52
2022-10-02T05:39:29.273Z,99.02
2022-10-02T05:42:05.838Z,98.89
2022-10-02T05:44:39.476Z,98.90
2022-10-02T05:47:14.460Z,98.78
2022-10-02T05:49:49.792Z,98.92
2022-10-02T05:52:22.143Z,99.55
2022-10-02T05:54:57.136Z,99.78
2022-10-02T05:57:32.261Z,99.17
2022-10-02T06:00:22.120Z,99.32
2022-10-02T06:02:58.217Z,99.34
2022-10-02T06:05:31.509Z,98.35
2022-10-02T06:08:03.684Z,98.63
2022-10-02T06:10:44.051Z,99.83
2022-10-02T06:13:16.836Z,100.00
2022-10-02T06:15:50.712Z,99.48
2022-10-02T06:18:22.466Z,99.47
2022-10-02T06:20:55.276Z,99.78
2022-10-02T06:23:27.808Z,100.00
2022-10-02T06:26:00.999Z,100.00
2022-10-02T06:28:35.060Z,100.00
2022-10-02T06:31:11.503Z,100.00
2022-10-02T06:33:39.591Z,100.00
2022-10-02T06:36:24.623Z,100.00
2022-10-02T06:39:11.051Z,100.00
2022-10-02T06:41:48.261Z,100.00
2022-10-02T06:44:23.752Z,100.00
2022-10-02T06:47:06.861Z,100.00
2022-10-02T06:49:48.224Z,100.00
2022-10-02T06:52:27.577Z,99.60
2022-10-02T06:55:11.218Z,99.90
2022-10-02T06:57:56.859Z,100.00
2022-10-02T07:00:25.427Z,100.00
2022-10-02T07:03:17.083Z,100.00
2022-10-02T07:05:55.223Z,100.00
2022-10-02T07:08:37.416Z,100.00
2022-10-02T07:11:15.788Z,100.00
2022-10-02T07:14:08.873Z,100.00
2022-10-02T07:16:52.007Z,100.00
2022-10-02T07:19:40.830Z,100.00
2022-10-02T07:22:43.515Z,100.00
2022-10-02T07:25:33.068Z,100.00
2022-10-02T07:28:11.900Z,100.00
2022-10-02T07:30:56.732Z,100.00
2022-10-02T07:33:35.995Z,100.00
2022-10-02T07:36:10.579Z,100.00
2022-10-02T07:38:56.230Z,100.00
2022-10-02T07:42:02.731Z,100.00
2022-10-02T07:45:00.488Z,100.00
2022-10-02T07:47:48.267Z,100.00
2022-10-02T07:50:23.698Z,99.66
2022-10-02T07:52:58.300Z,99.50
2022-10-02T07:55:27.778Z,99.39
2022-10-02T07:58:02.363Z,98.19
2022-10-02T08:00:33.499Z,98.58
2022-10-02T08:03:09.468Z,97.98
2022-10-02T08:05:42.432Z,97.29
2022-10-02T08:08:19.341Z,97.54
2022-10-02T08:10:53.455Z,98.29
2022-10-02T08:13:28.896Z,96.12
2022-10-02T08:15:57.535Z,97.86
2022-10-02T08:18:35.027Z,98.43
2022-10-02T08:21:05.920Z,98.22
2022-10-02T08:23:40.361Z,96.60
2022-10-02T08:26:13.658Z,96.33
2022-10-02T08:28:46.378Z,96.81
2022-10-02T08:31:15.924Z,97.65
2022-10-02T08:33:45.461Z,96.25
2022-10-02T08:36:33.911Z,93.67
2022-10-02T08:39:14.205Z,96.41
2022-10-02T08:42:32.427Z,97.63
2022-10-02T08:45:16.183Z,96.51
2022-10-02T08:48:11.451Z,96.67
2022-10-02T08:51:10.314Z,97.27
2022-10-02T08:54:09.442Z,96.95
2022-10-02T08:56:47.771Z,97.21
2022-10-02T08:59:48.199Z,96.86
2022-10-02T09:02:55.473Z,96.61
2022-10-02T09:06:06.547Z,96.71
2022-10-02T09:09:10.653Z,95.19
2022-10-02T09:11:59.145Z,96.66
2022-10-02T09:14:45.147Z,96.65
2022-10-02T09:17:18.615Z,97.54
2022-10-02T09:19:56.691Z,97.01
2022-10-02T09:22:49.972Z,95.14
2022-10-02T09:25:37.783Z,95.14
2022-10-02T09:28:42.540Z,94.10
2022-10-02T09:31:43.188Z,93.89
2022-10-02T09:34:48.055Z,92.69
2022-10-02T09:37:58.616Z,92.25
2022-10-02T09:40:56.774Z,91.45
2022-10-02T09:43:53.468Z,91.24
2022-10-02T09:47:02.759Z,89.90
2022-10-02T09:50:14.718Z,90.72
2022-10-02T09:53:13.823Z,89.00
2022-10-02T09:56:29.184Z,88.16
2022-10-02T09:59:50.028Z,87.99
2022-10-02T10:02:34.501Z,87.83
2022-10-02T10:05:32.558Z,88.15
2022-10-02T10:08:26.805Z,87.71
2022-10-02T10:11:10.577Z,87.65
2022-10-02T10:14:09.547Z,88.55
2022-10-02T10:17:22.007Z,88.30
2022-10-02T10:20:27.259Z,86.40
2022-10-02T10:23:36.047Z,86.61
2022-10-02T10:26:36.952Z,85.85
2022-10-02T10:29:50.798Z,85.04
2022-10-02T10:32:52.237Z,84.77
2022-10-02T10:36:02.297Z,86.68
2022-10-02T10:38:52.080Z,88.76
2022-10-02T10:41:52.567Z,89.22
2022-10-02T10:44:41.988Z,88.66
2022-10-02T10:47:34.960Z,87.76
2022-10-02T10:50:32.024Z,88.52
2022-10-02T10:53:23.216Z,88.61
2022-10-02T10:56:13.332Z,89.10
2022-10-02T10:58:59.429Z,89.51
2022-10-02T11:01:40.527Z,89.34
2022-10-02T11:04:39.327Z,89.52
2022-10-02T11:07:23.533Z,90.05
2022-10-02T11:10:10.009Z,90.00
2022-10-02T11:12:57.443Z,90.27
2022-10-02T11:15:49.900Z,90.12
2022-10-02T11:18:34.562Z,89.70
2022-10-02T11:21:40.021Z,90.25
2022-10-02T11:24:43.869Z,89.80
2022-10-02T11:27:28.316Z,90.34
2022-10-02T11:30:17.053Z,90.44
2022-10-02T11:33:11.731Z,90.52
2022-10-02T11:35:54.578Z,90.69
2022-10-02T11:38:39.012Z,90.98
2022-10-02T11:41:33.175Z,91.55
2022-10-02T11:44:17.027Z,92.02
2022-10-02T11:47:14.858Z,91.49
2022-10-02T11:50:03.435Z,92.21
2022-10-02T11:52:55.417Z,91.68
2022-10-02T11:55:39.208Z,92.18
2022-10-02T11:58:20.147Z,91.92
2022-10-02T12:01:32.133Z,92.64
2022-10-02T12:04:23.055Z,91.65
2022-10-02T12:07:17.337Z,92.75
2022-10-02T12:10:00.266Z,91.12
2022-10-02T12:12:42.157Z,92.06
2022-10-02T12:15:22.007Z,93.18
2022-10-02T12:18:05.758Z,93.44
2022-10-02T12:21:08.136Z,93.42
2022-10-02T12:24:06.371Z,93.51
2022-10-02T12:27:00.909Z,93.19
2022-10-02T12:29:43.623Z,94.22
2022-10-02T12:32:23.208Z,94.36
2022-10-02T12:35:03.927Z,93.97
2022-10-02T12:37:41.933Z,91.90
2022-10-02T12:40:18.996Z,92.21
2022-10-02T12:43:12.994Z,92.83
2022-10-02T12:46:18.974Z,92.55
2022-10-02T12:49:13.180Z,92.66
2022-10-02T12:51:56.211Z,94.55
2022-10-02T12:55:05.475Z,95.06
2022-10-02T12:57:55.940Z,93.78
2022-10-02T13:00:26.711Z,95.18
2022-10-02T13:03:40.236Z,94.82
2022-10-02T13:06:38.137Z,95.70
2022-10-02T13:09:18.650Z,95.31
2022-10-02T13:12:12.615Z,94.97
2022-10-02T13:15:04.475Z,94.10
2022-10-02T13:17:46.200Z,94.71
2022-10-02T13:20:26.365Z,95.53
2022-10-02T13:23:07.580Z,94.73
2022-10-02T13:25:45.549Z,94.49
2022-10-02T13:28:33.449Z,94.51
2022-10-02T13:31:12.413Z,94.28
2022-10-02T13:34:00.217Z,94.40
2022-10-02T13:36:41.824Z,96.16
2022-10-02T13:39:29.083Z,94.78
2022-10-02T13:42:09.679Z,95.38
2022-10-02T13:44:45.884Z,93.65
2022-10-02T13:47:31.554Z,93.21
2022-10-02T13:50:19.672Z,92.62
2022-10-02T13:53:03.124Z,93.46
2022-10-02T13:55:35.368Z,94.42
2022-10-02T13:58:36.014Z,94.63
2022-10-02T14:01:17.064Z,93.27
2022-10-02T14:04:14.067Z,92.88
2022-10-02T14:06:49.859Z,93.71
2022-10-02T14:09:42.915Z,94.11
2022-10-02T14:12:29.784Z,93.64
2022-10-02T14:15:11.395Z,93.48
2022-10-02T14:17:56.256Z,94.29
2022-10-02T14:20:38.600Z,94.37
2022-10-02T14:23:27.112Z,95.38
2022-10-02T14:26:05.711Z,93.34
2022-10-02T14:28:50.674Z,94.13
2022-10-02T14:31:47.699Z,93.28
2022-10-02T14:34:50.754Z,93.26
2022-10-02T14:37:36.366Z,93.64
2022-10-02T14:40:13.744Z,92.99
2022-10-02T14:43:13.560Z,93.84
2022-10-02T14:46:03.049Z,93.34
2022-10-02T14:48:50.975Z,94.02
2022-10-02T14:51:34.692Z,94.07
2022-10-02T14:54:29.535Z,94.10
2022-10-02T14:57:24.491Z,93.68
2022-10-02T15:00:18.655Z,94.58
2022-10-02T15:03:14.478Z,94.47
2022-10-02T15:06:03.505Z,94.12
2022-10-02T15:08:37.077Z,95.68
2022-10-02T15:11:19.128Z,95.79
2022-10-02T15:13:53.390Z,94.86
2022-10-02T15:16:44.845Z,94.92
2022-10-02T15:19:20.139Z,94.54
2022-10-02T15:21:56.393Z,95.57
2022-10-02T15:24:31.486Z,94.30
2022-10-02T15:27:21.939Z,95.08
2022-10-02T15:30:04.586Z,94.83
2022-10-02T15:32:50.859Z,95.85
2022-10-02T15:35:28.543Z,95.95
2022-10-02T15:38:21.774Z,96.41
2022-10-02T15:41:05.349Z,95.95
2022-10-02T15:43:46.448Z,95.14
2022-10-02T15:46:21.854Z,94.81
2022-10-02T15:48:59.685Z,96.63
2022-10-02T15:51:45.976Z,96.20
2022-10-02T15:54:27.408Z,96.56
2022-10-02T15:57:08.700Z,95.86
2022-10-02T16:00:02.456Z,95.94
2022-10-02T16:02:57.681Z,96.42
2022-10-02T16:05:58.111Z,95.86
2022-10-02T16:09:04.252Z,96.51
2022-10-02T16:11:50.609Z,97.80
2022-10-02T16:14:29.012Z,96.67
2022-10-02T16:17:12.701Z,97.76
2022-10-02T16:19:58.621Z,98.08
2022-10-02T16:22:43.608Z,97.46
2022-10-02T16:25:26.237Z,97.20
2022-10-02T16:28:05.539Z,97.07
2022-10-02T16:30:43.195Z,97.52
2022-10-02T16:33:21.243Z,98.25
2022-10-02T16:36:03.545Z,98.24
2022-10-02T16:38:45.229Z,96.89
2022-10-02T16:41:24.830Z,96.26
2022-10-02T16:44:03.568Z,96.85
2022-10-02T16:46:38.126Z,96.82
2022-10-02T16:49:20.778Z,96.66
2022-10-02T16:51:56.551Z,97.05
2022-10-02T16:54:31.356Z,97.60
2022-10-02T16:57:05.265Z,98.11
2022-10-02T16:59:43.937Z,98.66
2022-10-02T17:02:19.751Z,99.04
2022-10-02T17:05:03.278Z,99.18
2022-10-02T17:07:44.809Z,98.63
2022-10-02T17:10:23.580Z,98.35
2022-10-02T17:12:59.787Z,98.57
2022-10-02T17:15:35.579Z,99.65
2022-10-02T17:18:14.396Z,99.51
2022-10-02T17:20:48.311Z,99.40
2022-10-02T17:23:24.556Z,99.94
2022-10-02T17:26:02.990Z,100.00
2022-10-02T17:28:39.138Z,99.69
2022-10-02T17:31:35.768Z,99.75
2022-10-02T17:34:19.872Z,99.84
2022-10-02T17:36:55.344Z,99.37
2022-10-02T17:39:54.803Z,100.00
2022-10-02T17:42:33.978Z,99.61
2022-10-02T17:45:16.723Z,99.55
2022-10-02T17:48:07.438Z,99.72
2022-10-02T17:50:47.440Z,100.00
2022-10-02T17:53:47.638Z,99.50
2022-10-02T17:56:29.664Z,99.85
2022-10-02T17:59:17.677Z,99.27
2022-10-02T18:01:55.266Z,98.69
2022-10-02T18:04:33.692Z,98.53
2022-10-02T18:07:19.467Z,98.26
2022-10-02T18:10:04.543Z,98.05
2022-10-02T18:12:54.040Z,98.35
2022-10-02T18:15:28.808Z,98.47
2022-10-02T18:18:17.817Z,98.18
2022-10-02T18:21:01.270Z,97.81
2022-10-02T18:23:48.448Z,98.90
2022-10-02T18:26:33.799Z,98.23
2022-10-02T18:29:20.407Z,98.23
2022-10-02T18:32:38.810Z,98.30
2022-10-02T18:35:23.250Z,98.45
2022-10-02T18:38:01.516Z,98.99
2022-10-02T18:40:31.885Z,99.47
2022-10-02T18:43:22.528Z,99.74
2022-10-02T18:46:01.966Z,99.63
2022-10-02T18:49:00.217Z,99.86
2022-10-02T18:52:08.656Z,99.62
2022-10-02T18:54:47.535Z,100.00
2022-10-02T18:57:34.212Z,99.88
2022-10-02T19:00:17.166Z,100.00
2022-10-02T19:03:02.837Z,100.00
2022-10-02T19:05:35.377Z,100.00
2022-10-02T19:08:18.816Z,100.00
2022-10-02T19:10:48.063Z,100.00
2022-10-02T19:13:23.718Z,100.00
2022-10-02T19:15:54.583Z,100.00
2022-10-02T19:18:25.268Z,100.00
2022-10-02T19:20:57.720Z,100.00
2022-10-02T19:23:32.808Z,100.00
2022-10-02T19:26:05.845Z,100.00
2022-10-02T19:28:40.094Z,100.00
2022-10-02T19:31:10.540Z,99.94
2022-10-02T19:33:46.257Z,100.00
2022-10-02T19:36:18.970Z,100.00
2022-10-02T19:38:53.339Z,100.00
2022-10-02T19:41:23.413Z,100.00
2022-10-02T19:43:56.497Z,100.00
2022-10-02T19:46:38.829Z,100.00
2022-10-02T19:49:08.348Z,100.00
2022-10-02T19:51:44.723Z,100.00
2022-10-02T19:54:19.427Z,100.00
2022-10-02T19:56:58.670Z,100.00
2022-10-02T19:59:32.220Z,100.00
2022-10-02T20:02:13.684Z,100.00
2022-10-02T20:04:41.698Z,100.00
2022-10-02T20:07:18.891Z,100.00
2022-10-02T20:09:50.171Z,100.00
2022-10-02T20:12:23.111Z,100.00
2022-10-02T20:14:56.226Z,100.00
2022-10-02T20:17:24.787Z,100.00
2022-10-02T20:19:57.858Z,100.00
2022-10-02T20:22:34.126Z,100.00
2022-10-02T20:25:09.984Z,100.00
2022-10-02T20:27:43.732Z,99.94
2022-10-02T20:30:15.375Z,100.00
2022-10-02T20:32:52.944Z,100.00
2022-10-02T20:35:29.226Z,100.00
2022-10-02T20:37:59.911Z,99.98
2022-10-02T20:40:32.632Z,100.00
2022-10-02T20:43:06.094Z,100.00
2022-10-02T20:45:40.606Z,100.00
2022-10-02T20:49:08.089Z,100.00
2022-10-02T20:52:13.354Z,99.21
2022-10-02T20:54:51.574Z,99.31
2022-10-02T20:58:07.022Z,99.47
2022-10-02T21:00:52.383Z,99.81
2022-10-02T21:04:13.052Z,100.00
2022-10-02T21:07:05.874Z,99.74
2022-10-02T21:09:59.715Z,99.54
2022-10-02T21:13:12.347Z,99.35
2022-10-02T21:16:10.875Z,98.27
2022-10-02T21:19:14.321Z,98.91
2022-10-02T21:22:36.096Z,99.25
2022-10-02T21:25:55.377Z,99.04
2022-10-02T21:28:51.533Z,99.61
2022-10-02T21:31:38.480Z,99.01
2022-10-02T21:34:26.661Z,99.02
2022-10-02T21:36:59.680Z,98.74
2022-10-02T21:39:52.188Z,98.51
2022-10-02T21:42:57.984Z,98.34
2022-10-02T21:45:50.489Z,98.13
2022-10-02T21:48:52.416Z,97.76
2022-10-02T21:51:55.656Z,98.58
2022-10-02T21:54:53.573Z,98.42
2022-10-02T21:58:06.513Z,98.88
2022-10-02T22:00:53.956Z,99.25
2022-10-02T22:03:50.494Z,98.32
2022-10-02T22:06:37.467Z,98.25
2022-10-02T22:09:19.709Z,98.02
2022-10-02T22:12:06.943Z,98.10
2022-10-02T22:14:39.455Z,97.94
2022-10-02T22:17:18.565Z,98.19
2022-10-02T22:20:07.378Z,96.88
2022-10-02T22:22:49.065Z,97.07
2022-10-02T22:25:33.821Z,97.06
2022-10-02T22:28:16.411Z,97.32
2022-10-02T22:31:07.473Z,97.36
2022-10-02T22:33:55.052Z,96.74
2022-10-02T22:36:37.273Z,96.74
2022-10-02T22:39:10.651Z,96.92
2022-10-02T22:41:44.423Z,95.92
2022-10-02T22:44:23.413Z,95.94
2022-10-02T22:46:57.037Z,95.41
2022-10-02T22:49:31.327Z,95.94
2022-10-02T22:52:04.934Z,95.73
2022-10-02T22:54:41.003Z,96.78
2022-10-02T22:57:19.280Z,96.88
2022-10-02T22:59:55.693Z,97.10
2022-10-02T23:02:29.508Z,97.49
2022-10-02T23:05:06.364Z,97.69
2022-10-02T23:07:44.559Z,97.32
2022-10-02T23:10:23.063Z,97.58
2022-10-02T23:13:01.213Z,97.61
2022-10-02T23:15:42.585Z,97.77
2022-10-02T23:18:27.309Z,97.09
2022-10-02T23:21:02.988Z,96.80
2022-10-02T23:23:35.932Z,95.79
2022-10-02T23:26:09.869Z,95.56
2022-10-02T23:28:46.683Z,95.87
2022-10-02T23:31:30.387Z,94.75
2022-10-02T23:34:08.541Z,95.14
2022-10-02T23:36:47.388Z,95.06
2022-10-02T23:39:20.384Z,95.58
2022-10-02T23:41:51.577Z,96.44
2022-10-02T23:44:29.206Z,97.22
2022-10-02T23:47:15.700Z,97.35
2022-10-02T23:49:47.123Z,98.01
2022-10-02T23:52:36.132Z,97.98
2022-10-02T23:55:24.828Z,97.70
2022-10-02T23:58:13.418Z,97.64
